sensor_id;sensor_type;location;lat;lon;timestamp;P1;durP1;ratioP1;P2;durP2;ratioP2
80707;SDS011;70222;49.204;-122.940;2023-08-06T00:02:50;3.67;;;2.40;;
80707;SDS011;70222;49.204;-122.940;2023-08-06T00:05:16;3.30;;;2.25;;
80707;SDS011;70222;49.204;-122.940;2023-08-06T00:07:49;3.00;;;1.90;;
80707;SDS011;70222;49.204;-122.940;2023-08-06T00:10:16;3.10;;;1.92;;
80707;SDS011;70222;49.204;-122.940;2023-08-06T00:12:45;3.38;;;1.90;;
80707;SDS011;70222;49.204;-122.940;2023-08-06T00:15:12;3.05;;;1.90;;
80707;SDS011;70222;49.204;-122.940;2023-08-06T00:17:38;3.75;;;1.92;;
80707;SDS011;70222;49.204;-122.940;2023-08-06T00:20:04;5.90;;;2.55;;
80707;SDS011;70222;49.204;-122.940;2023-08-06T00:22:32;3.78;;;2.15;;
80707;SDS011;70222;49.204;-122.940;2023-08-06T00:24:59;9.63;;;3.15;;
80707;SDS011;70222;49.204;-122.940;2023-08-06T00:27:25;5.20;;;2.45;;
80707;SDS011;70222;49.204;-122.940;2023-08-06T00:32:18;3.40;;;2.00;;
80707;SDS011;70222;49.204;-122.940;2023-08-06T00:34:44;3.60;;;2.28;;
80707;SDS011;70222;49.204;-122.940;2023-08-06T00:37:10;2.90;;;2.10;;
80707;SDS011;70222;49.204;-122.940;2023-08-06T00:39:36;3.95;;;2.47;;
80707;SDS011;70222;49.204;-122.940;2023-08-06T00:42:02;3.92;;;2.45;;
80707;SDS011;70222;49.204;-122.940;2023-08-06T00:44:28;3.55;;;2.78;;
80707;SDS011;70222;49.204;-122.940;2023-08-06T00:46:55;4.85;;;2.85;;
80707;SDS011;70222;49.204;-122.940;2023-08-06T00:49:21;4.13;;;2.53;;
80707;SDS011;70222;49.204;-122.940;2023-08-06T00:51:48;3.88;;;2.50;;
80707;SDS011;70222;49.204;-122.940;2023-08-06T00:54:14;3.75;;;2.40;;
80707;SDS011;70222;49.204;-122.940;2023-08-06T00:56:40;3.70;;;2.30;;
80707;SDS011;70222;49.204;-122.940;2023-08-06T00:59:07;3.88;;;2.58;;
80707;SDS011;70222;49.204;-122.940;2023-08-06T01:01:35;3.78;;;1.98;;
80707;SDS011;70222;49.204;-122.940;2023-08-06T01:04:01;2.95;;;2.25;;
80707;SDS011;70222;49.204;-122.940;2023-08-06T01:06:48;2.90;;;2.05;;
80707;SDS011;70222;49.204;-122.940;2023-08-06T01:11:55;3.05;;;1.80;;
80707;SDS011;70222;49.204;-122.940;2023-08-06T01:14:30;2.83;;;2.10;;
80707;SDS011;70222;49.204;-122.940;2023-08-06T01:17:03;2.50;;;1.95;;
80707;SDS011;70222;49.204;-122.940;2023-08-06T01:19:30;4.13;;;2.30;;
80707;SDS011;70222;49.204;-122.940;2023-08-06T01:21:56;2.95;;;2.20;;
80707;SDS011;70222;49.204;-122.940;2023-08-06T01:24:22;4.43;;;1.70;;
80707;SDS011;70222;49.204;-122.940;2023-08-06T01:26:51;3.30;;;1.90;;
80707;SDS011;70222;49.204;-122.940;2023-08-06T01:29:28;2.75;;;1.77;;
80707;SDS011;70222;49.204;-122.940;2023-08-06T01:31:56;3.28;;;2.33;;
80707;SDS011;70222;49.204;-122.940;2023-08-06T01:34:27;2.60;;;1.80;;
80707;SDS011;70222;49.204;-122.940;2023-08-06T01:36:54;4.55;;;2.20;;
80707;SDS011;70222;49.204;-122.940;2023-08-06T01:39:20;2.75;;;2.13;;
80707;SDS011;70222;49.204;-122.940;2023-08-06T01:41:47;2.97;;;1.83;;
80707;SDS011;70222;49.204;-122.940;2023-08-06T01:44:14;3.15;;;1.90;;
80707;SDS011;70222;49.204;-122.940;2023-08-06T01:46:40;3.42;;;2.30;;
80707;SDS011;70222;49.204;-122.940;2023-08-06T01:49:07;2.85;;;2.00;;
80707;SDS011;70222;49.204;-122.940;2023-08-06T01:51:33;3.35;;;2.10;;
80707;SDS011;70222;49.204;-122.940;2023-08-06T01:53:59;3.25;;;2.08;;
80707;SDS011;70222;49.204;-122.940;2023-08-06T01:56:25;3.63;;;2.10;;
80707;SDS011;70222;49.204;-122.940;2023-08-06T01:58:51;4.43;;;2.50;;
80707;SDS011;70222;49.204;-122.940;2023-08-06T02:01:17;3.33;;;2.22;;
80707;SDS011;70222;49.204;-122.940;2023-08-06T02:03:43;3.83;;;2.00;;
80707;SDS011;70222;49.204;-122.940;2023-08-06T02:06:09;4.15;;;2.03;;
80707;SDS011;70222;49.204;-122.940;2023-08-06T02:08:35;3.92;;;2.30;;
80707;SDS011;70222;49.204;-122.940;2023-08-06T02:11:02;3.67;;;2.03;;
80707;SDS011;70222;49.204;-122.940;2023-08-06T02:13:28;3.15;;;2.03;;
80707;SDS011;70222;49.204;-122.940;2023-08-06T02:15:54;2.72;;;2.03;;
80707;SDS011;70222;49.204;-122.940;2023-08-06T02:18:20;2.75;;;1.95;;
80707;SDS011;70222;49.204;-122.940;2023-08-06T02:20:58;3.20;;;2.10;;
80707;SDS011;70222;49.204;-122.940;2023-08-06T02:23:25;4.57;;;2.05;;
80707;SDS011;70222;49.204;-122.940;2023-08-06T02:25:58;2.45;;;1.85;;
80707;SDS011;70222;49.204;-122.940;2023-08-06T02:28:25;2.65;;;1.90;;
80707;SDS011;70222;49.204;-122.940;2023-08-06T02:30:51;3.67;;;2.20;;
80707;SDS011;70222;49.204;-122.940;2023-08-06T02:35:43;3.92;;;2.53;;
80707;SDS011;70222;49.204;-122.940;2023-08-06T02:38:09;3.85;;;1.90;;
80707;SDS011;70222;49.204;-122.940;2023-08-06T02:40:35;3.15;;;2.17;;
80707;SDS011;70222;49.204;-122.940;2023-08-06T02:43:01;2.78;;;1.92;;
80707;SDS011;70222;49.204;-122.940;2023-08-06T02:45:28;2.83;;;1.92;;
80707;SDS011;70222;49.204;-122.940;2023-08-06T02:47:54;4.03;;;2.22;;
80707;SDS011;70222;49.204;-122.940;2023-08-06T02:50:20;3.58;;;2.00;;
80707;SDS011;70222;49.204;-122.940;2023-08-06T02:52:46;3.30;;;2.10;;
80707;SDS011;70222;49.204;-122.940;2023-08-06T02:55:13;3.05;;;2.05;;
80707;SDS011;70222;49.204;-122.940;2023-08-06T02:57:39;2.90;;;1.95;;
80707;SDS011;70222;49.204;-122.940;2023-08-06T03:00:05;3.17;;;2.00;;
80707;SDS011;70222;49.204;-122.940;2023-08-06T03:04:57;2.80;;;2.05;;
80707;SDS011;70222;49.204;-122.940;2023-08-06T03:07:23;3.22;;;2.25;;
80707;SDS011;70222;49.204;-122.940;2023-08-06T03:09:49;5.45;;;2.50;;
80707;SDS011;70222;49.204;-122.940;2023-08-06T03:12:15;3.08;;;2.15;;
80707;SDS011;70222;49.204;-122.940;2023-08-06T03:14:41;3.67;;;2.33;;
80707;SDS011;70222;49.204;-122.940;2023-08-06T03:17:07;3.97;;;2.42;;
80707;SDS011;70222;49.204;-122.940;2023-08-06T03:19:33;3.17;;;2.40;;
80707;SDS011;70222;49.204;-122.940;2023-08-06T03:22:00;3.70;;;2.40;;
80707;SDS011;70222;49.204;-122.940;2023-08-06T03:24:26;3.38;;;2.45;;
80707;SDS011;70222;49.204;-122.940;2023-08-06T03:26:52;3.63;;;2.28;;
80707;SDS011;70222;49.204;-122.940;2023-08-06T03:29:18;3.83;;;2.20;;
80707;SDS011;70222;49.204;-122.940;2023-08-06T03:31:44;5.32;;;2.83;;
80707;SDS011;70222;49.204;-122.940;2023-08-06T03:34:10;3.53;;;2.22;;
80707;SDS011;70222;49.204;-122.940;2023-08-06T03:36:37;3.83;;;2.85;;
80707;SDS011;70222;49.204;-122.940;2023-08-06T03:39:03;4.70;;;2.40;;
80707;SDS011;70222;49.204;-122.940;2023-08-06T03:41:30;3.63;;;2.47;;
80707;SDS011;70222;49.204;-122.940;2023-08-06T03:43:56;4.88;;;2.63;;
80707;SDS011;70222;49.204;-122.940;2023-08-06T03:46:22;3.33;;;2.45;;
80707;SDS011;70222;49.204;-122.940;2023-08-06T03:48:48;2.70;;;2.08;;
80707;SDS011;70222;49.204;-122.940;2023-08-06T03:51:14;3.55;;;2.33;;
80707;SDS011;70222;49.204;-122.940;2023-08-06T03:53:40;3.97;;;2.50;;
80707;SDS011;70222;49.204;-122.940;2023-08-06T03:56:06;4.22;;;2.60;;
80707;SDS011;70222;49.204;-122.940;2023-08-06T03:58:32;4.47;;;2.42;;
80707;SDS011;70222;49.204;-122.940;2023-08-06T04:01:00;4.75;;;2.92;;
80707;SDS011;70222;49.204;-122.940;2023-08-06T04:03:27;4.60;;;2.97;;
80707;SDS011;70222;49.204;-122.940;2023-08-06T04:05:54;3.00;;;2.38;;
80707;SDS011;70222;49.204;-122.940;2023-08-06T04:08:20;4.15;;;2.58;;
80707;SDS011;70222;49.204;-122.940;2023-08-06T04:10:53;3.00;;;2.22;;
80707;SDS011;70222;49.204;-122.940;2023-08-06T04:13:20;3.17;;;2.17;;
80707;SDS011;70222;49.204;-122.940;2023-08-06T04:15:46;5.15;;;2.65;;
80707;SDS011;70222;49.204;-122.940;2023-08-06T04:18:13;3.78;;;2.20;;
80707;SDS011;70222;49.204;-122.940;2023-08-06T04:20:43;3.65;;;2.20;;
80707;SDS011;70222;49.204;-122.940;2023-08-06T04:23:10;3.42;;;2.15;;
80707;SDS011;70222;49.204;-122.940;2023-08-06T04:25:37;4.32;;;2.70;;
80707;SDS011;70222;49.204;-122.940;2023-08-06T04:28:03;4.47;;;2.95;;
80707;SDS011;70222;49.204;-122.940;2023-08-06T04:30:30;3.03;;;2.30;;
80707;SDS011;70222;49.204;-122.940;2023-08-06T04:32:59;3.25;;;2.25;;
80707;SDS011;70222;49.204;-122.940;2023-08-06T04:35:25;5.05;;;2.67;;
80707;SDS011;70222;49.204;-122.940;2023-08-06T04:37:51;3.38;;;2.72;;
80707;SDS011;70222;49.204;-122.940;2023-08-06T04:40:17;4.10;;;2.80;;
80707;SDS011;70222;49.204;-122.940;2023-08-06T04:42:43;4.13;;;2.40;;
80707;SDS011;70222;49.204;-122.940;2023-08-06T04:45:09;3.53;;;2.55;;
80707;SDS011;70222;49.204;-122.940;2023-08-06T04:47:36;3.97;;;2.38;;
80707;SDS011;70222;49.204;-122.940;2023-08-06T04:50:02;3.38;;;2.28;;
80707;SDS011;70222;49.204;-122.940;2023-08-06T04:52:28;3.45;;;2.45;;
80707;SDS011;70222;49.204;-122.940;2023-08-06T04:54:54;4.40;;;2.92;;
80707;SDS011;70222;49.204;-122.940;2023-08-06T04:57:20;4.18;;;2.30;;
80707;SDS011;70222;49.204;-122.940;2023-08-06T04:59:47;4.93;;;2.97;;
80707;SDS011;70222;49.204;-122.940;2023-08-06T05:02:13;3.90;;;2.50;;
80707;SDS011;70222;49.204;-122.940;2023-08-06T05:04:39;4.43;;;2.63;;
80707;SDS011;70222;49.204;-122.940;2023-08-06T05:07:05;5.20;;;2.58;;
80707;SDS011;70222;49.204;-122.940;2023-08-06T05:09:31;3.40;;;2.38;;
80707;SDS011;70222;49.204;-122.940;2023-08-06T05:12:00;4.28;;;2.83;;
80707;SDS011;70222;49.204;-122.940;2023-08-06T05:14:27;3.75;;;2.53;;
80707;SDS011;70222;49.204;-122.940;2023-08-06T05:16:53;4.28;;;2.35;;
80707;SDS011;70222;49.204;-122.940;2023-08-06T05:19:19;3.00;;;2.17;;
80707;SDS011;70222;49.204;-122.940;2023-08-06T05:21:45;3.13;;;2.10;;
80707;SDS011;70222;49.204;-122.940;2023-08-06T05:24:11;3.60;;;2.85;;
80707;SDS011;70222;49.204;-122.940;2023-08-06T05:26:37;3.45;;;2.47;;
80707;SDS011;70222;49.204;-122.940;2023-08-06T05:29:04;4.50;;;3.30;;
80707;SDS011;70222;49.204;-122.940;2023-08-06T05:31:30;4.22;;;2.85;;
80707;SDS011;70222;49.204;-122.940;2023-08-06T05:33:56;3.70;;;2.45;;
80707;SDS011;70222;49.204;-122.940;2023-08-06T05:36:22;4.22;;;3.00;;
80707;SDS011;70222;49.204;-122.940;2023-08-06T05:38:48;4.40;;;2.60;;
80707;SDS011;70222;49.204;-122.940;2023-08-06T05:41:14;5.18;;;4.07;;
80707;SDS011;70222;49.204;-122.940;2023-08-06T05:43:40;4.43;;;3.33;;
80707;SDS011;70222;49.204;-122.940;2023-08-06T05:46:06;3.20;;;2.70;;
80707;SDS011;70222;49.204;-122.940;2023-08-06T05:48:32;2.92;;;2.13;;
80707;SDS011;70222;49.204;-122.940;2023-08-06T05:50:58;3.88;;;2.25;;
80707;SDS011;70222;49.204;-122.940;2023-08-06T05:53:25;5.25;;;2.70;;
80707;SDS011;70222;49.204;-122.940;2023-08-06T05:55:51;4.68;;;3.80;;
80707;SDS011;70222;49.204;-122.940;2023-08-06T05:58:17;4.22;;;2.78;;
80707;SDS011;70222;49.204;-122.940;2023-08-06T06:00:46;4.78;;;2.75;;
80707;SDS011;70222;49.204;-122.940;2023-08-06T06:03:12;4.20;;;2.70;;
80707;SDS011;70222;49.204;-122.940;2023-08-06T06:05:38;3.40;;;1.90;;
80707;SDS011;70222;49.204;-122.940;2023-08-06T06:08:04;3.72;;;2.42;;
80707;SDS011;70222;49.204;-122.940;2023-08-06T06:10:30;4.53;;;2.60;;
80707;SDS011;70222;49.204;-122.940;2023-08-06T06:12:56;4.57;;;2.70;;
80707;SDS011;70222;49.204;-122.940;2023-08-06T06:15:22;3.58;;;2.85;;
80707;SDS011;70222;49.204;-122.940;2023-08-06T06:17:48;4.57;;;2.85;;
80707;SDS011;70222;49.204;-122.940;2023-08-06T06:20:15;5.28;;;3.05;;
80707;SDS011;70222;49.204;-122.940;2023-08-06T06:22:42;3.22;;;2.38;;
80707;SDS011;70222;49.204;-122.940;2023-08-06T06:25:08;4.07;;;2.38;;
80707;SDS011;70222;49.204;-122.940;2023-08-06T06:27:35;3.10;;;2.38;;
80707;SDS011;70222;49.204;-122.940;2023-08-06T06:30:01;5.75;;;3.20;;
80707;SDS011;70222;49.204;-122.940;2023-08-06T06:32:28;6.10;;;3.40;;
80707;SDS011;70222;49.204;-122.940;2023-08-06T06:34:54;3.90;;;2.50;;
80707;SDS011;70222;49.204;-122.940;2023-08-06T06:37:20;4.13;;;2.80;;
80707;SDS011;70222;49.204;-122.940;2023-08-06T06:39:46;7.30;;;3.05;;
80707;SDS011;70222;49.204;-122.940;2023-08-06T06:42:12;4.63;;;2.65;;
80707;SDS011;70222;49.204;-122.940;2023-08-06T06:44:40;3.95;;;2.50;;
80707;SDS011;70222;49.204;-122.940;2023-08-06T06:47:06;3.80;;;2.63;;
80707;SDS011;70222;49.204;-122.940;2023-08-06T06:49:32;4.03;;;2.90;;
80707;SDS011;70222;49.204;-122.940;2023-08-06T06:51:58;3.25;;;2.22;;
80707;SDS011;70222;49.204;-122.940;2023-08-06T06:54:24;4.30;;;2.92;;
80707;SDS011;70222;49.204;-122.940;2023-08-06T06:56:50;3.38;;;2.40;;
80707;SDS011;70222;49.204;-122.940;2023-08-06T06:59:16;5.82;;;2.33;;
80707;SDS011;70222;49.204;-122.940;2023-08-06T07:01:42;4.93;;;3.70;;
80707;SDS011;70222;49.204;-122.940;2023-08-06T07:04:08;4.82;;;3.28;;
80707;SDS011;70222;49.204;-122.940;2023-08-06T07:06:35;3.28;;;2.70;;
80707;SDS011;70222;49.204;-122.940;2023-08-06T07:09:01;3.55;;;2.40;;
80707;SDS011;70222;49.204;-122.940;2023-08-06T07:11:27;3.67;;;2.80;;
80707;SDS011;70222;49.204;-122.940;2023-08-06T07:13:56;3.53;;;2.60;;
80707;SDS011;70222;49.204;-122.940;2023-08-06T07:16:25;3.92;;;2.60;;
80707;SDS011;70222;49.204;-122.940;2023-08-06T07:18:52;3.65;;;2.72;;
80707;SDS011;70222;49.204;-122.940;2023-08-06T07:21:19;3.38;;;2.40;;
80707;SDS011;70222;49.204;-122.940;2023-08-06T07:23:45;3.85;;;2.30;;
80707;SDS011;70222;49.204;-122.940;2023-08-06T07:26:14;4.80;;;2.78;;
80707;SDS011;70222;49.204;-122.940;2023-08-06T07:31:07;3.00;;;2.50;;
80707;SDS011;70222;49.204;-122.940;2023-08-06T07:33:33;3.70;;;2.75;;
80707;SDS011;70222;49.204;-122.940;2023-08-06T07:35:59;3.42;;;2.40;;
80707;SDS011;70222;49.204;-122.940;2023-08-06T07:38:25;4.63;;;3.40;;
80707;SDS011;70222;49.204;-122.940;2023-08-06T07:40:51;4.25;;;2.78;;
80707;SDS011;70222;49.204;-122.940;2023-08-06T07:43:17;3.80;;;2.45;;
80707;SDS011;70222;49.204;-122.940;2023-08-06T07:45:43;4.53;;;2.70;;
80707;SDS011;70222;49.204;-122.940;2023-08-06T07:48:09;3.95;;;2.65;;
80707;SDS011;70222;49.204;-122.940;2023-08-06T07:50:35;6.75;;;2.60;;
80707;SDS011;70222;49.204;-122.940;2023-08-06T07:53:02;6.30;;;2.70;;
80707;SDS011;70222;49.204;-122.940;2023-08-06T07:55:28;3.78;;;2.65;;
80707;SDS011;70222;49.204;-122.940;2023-08-06T07:57:54;4.53;;;2.58;;
80707;SDS011;70222;49.204;-122.940;2023-08-06T08:00:20;4.28;;;2.67;;
80707;SDS011;70222;49.204;-122.940;2023-08-06T08:02:46;8.07;;;3.22;;
80707;SDS011;70222;49.204;-122.940;2023-08-06T08:05:12;3.55;;;2.50;;
80707;SDS011;70222;49.204;-122.940;2023-08-06T08:07:38;4.60;;;2.50;;
80707;SDS011;70222;49.204;-122.940;2023-08-06T08:10:07;3.53;;;2.50;;
80707;SDS011;70222;49.204;-122.940;2023-08-06T08:12:33;3.63;;;2.28;;
80707;SDS011;70222;49.204;-122.940;2023-08-06T08:14:59;3.72;;;2.63;;
80707;SDS011;70222;49.204;-122.940;2023-08-06T08:17:26;4.80;;;3.10;;
80707;SDS011;70222;49.204;-122.940;2023-08-06T08:19:52;4.47;;;2.65;;
80707;SDS011;70222;49.204;-122.940;2023-08-06T08:22:18;3.55;;;2.63;;
80707;SDS011;70222;49.204;-122.940;2023-08-06T08:24:44;4.40;;;3.30;;
80707;SDS011;70222;49.204;-122.940;2023-08-06T08:27:10;4.22;;;2.70;;
80707;SDS011;70222;49.204;-122.940;2023-08-06T08:29:36;3.85;;;2.60;;
80707;SDS011;70222;49.204;-122.940;2023-08-06T08:32:02;3.85;;;2.83;;
80707;SDS011;70222;49.204;-122.940;2023-08-06T08:34:29;4.10;;;2.60;;
80707;SDS011;70222;49.204;-122.940;2023-08-06T08:36:55;3.42;;;2.60;;
80707;SDS011;70222;49.204;-122.940;2023-08-06T08:39:21;4.13;;;2.58;;
80707;SDS011;70222;49.204;-122.940;2023-08-06T08:41:47;5.20;;;3.33;;
80707;SDS011;70222;49.204;-122.940;2023-08-06T08:44:13;4.18;;;2.72;;
80707;SDS011;70222;49.204;-122.940;2023-08-06T08:46:41;4.88;;;3.33;;
80707;SDS011;70222;49.204;-122.940;2023-08-06T08:49:07;5.35;;;3.15;;
80707;SDS011;70222;49.204;-122.940;2023-08-06T08:51:34;5.50;;;2.90;;
80707;SDS011;70222;49.204;-122.940;2023-08-06T08:54:02;4.45;;;2.95;;
80707;SDS011;70222;49.204;-122.940;2023-08-06T08:56:28;5.57;;;3.05;;
80707;SDS011;70222;49.204;-122.940;2023-08-06T08:58:55;5.57;;;3.25;;
80707;SDS011;70222;49.204;-122.940;2023-08-06T09:01:24;3.92;;;2.60;;
80707;SDS011;70222;49.204;-122.940;2023-08-06T09:03:51;6.85;;;3.15;;
80707;SDS011;70222;49.204;-122.940;2023-08-06T09:06:17;5.13;;;3.05;;
80707;SDS011;70222;49.204;-122.940;2023-08-06T09:09:20;5.50;;;3.17;;
80707;SDS011;70222;49.204;-122.940;2023-08-06T09:11:44;3.40;;;2.75;;
80707;SDS011;70222;49.204;-122.940;2023-08-06T09:14:13;5.07;;;3.13;;
80707;SDS011;70222;49.204;-122.940;2023-08-06T09:16:39;3.65;;;2.65;;
80707;SDS011;70222;49.204;-122.940;2023-08-06T09:21:38;5.70;;;3.00;;
80707;SDS011;70222;49.204;-122.940;2023-08-06T09:24:11;4.10;;;2.70;;
80707;SDS011;70222;49.204;-122.940;2023-08-06T09:26:39;5.63;;;2.92;;
80707;SDS011;70222;49.204;-122.940;2023-08-06T09:29:05;4.13;;;2.53;;
80707;SDS011;70222;49.204;-122.940;2023-08-06T09:31:42;5.70;;;3.20;;
80707;SDS011;70222;49.204;-122.940;2023-08-06T09:36:48;4.53;;;2.80;;
80707;SDS011;70222;49.204;-122.940;2023-08-06T09:39:28;4.47;;;2.80;;
80707;SDS011;70222;49.204;-122.940;2023-08-06T09:41:56;4.40;;;2.95;;
80707;SDS011;70222;49.204;-122.940;2023-08-06T09:44:23;4.60;;;2.63;;
80707;SDS011;70222;49.204;-122.940;2023-08-06T09:46:51;6.35;;;3.08;;
80707;SDS011;70222;49.204;-122.940;2023-08-06T09:49:28;5.90;;;3.03;;
80707;SDS011;70222;49.204;-122.940;2023-08-06T09:51:57;4.82;;;3.17;;
80707;SDS011;70222;49.204;-122.940;2023-08-06T09:54:25;4.63;;;2.90;;
80707;SDS011;70222;49.204;-122.940;2023-08-06T09:56:55;4.40;;;2.97;;
80707;SDS011;70222;49.204;-122.940;2023-08-06T09:59:25;4.10;;;2.65;;
80707;SDS011;70222;49.204;-122.940;2023-08-06T10:01:51;3.88;;;2.80;;
80707;SDS011;70222;49.204;-122.940;2023-08-06T10:04:19;5.10;;;3.25;;
80707;SDS011;70222;49.204;-122.940;2023-08-06T10:06:48;5.10;;;2.92;;
80707;SDS011;70222;49.204;-122.940;2023-08-06T10:09:15;4.78;;;2.60;;
80707;SDS011;70222;49.204;-122.940;2023-08-06T10:11:43;4.40;;;2.70;;
80707;SDS011;70222;49.204;-122.940;2023-08-06T10:14:22;4.32;;;2.38;;
80707;SDS011;70222;49.204;-122.940;2023-08-06T10:16:51;4.63;;;2.33;;
80707;SDS011;70222;49.204;-122.940;2023-08-06T10:19:17;3.92;;;2.83;;
80707;SDS011;70222;49.204;-122.940;2023-08-06T10:24:32;3.97;;;2.10;;
80707;SDS011;70222;49.204;-122.940;2023-08-06T10:27:19;3.75;;;2.03;;
80707;SDS011;70222;49.204;-122.940;2023-08-06T10:29:46;3.40;;;2.03;;
80707;SDS011;70222;49.204;-122.940;2023-08-06T10:32:12;2.58;;;1.80;;
80707;SDS011;70222;49.204;-122.940;2023-08-06T10:34:59;2.72;;;2.05;;
80707;SDS011;70222;49.204;-122.940;2023-08-06T10:37:35;2.95;;;2.13;;
80707;SDS011;70222;49.204;-122.940;2023-08-06T10:40:02;3.50;;;2.30;;
80707;SDS011;70222;49.204;-122.940;2023-08-06T10:42:29;2.63;;;1.98;;
80707;SDS011;70222;49.204;-122.940;2023-08-06T10:45:14;4.47;;;2.10;;
80707;SDS011;70222;49.204;-122.940;2023-08-06T10:47:41;3.30;;;2.20;;
80707;SDS011;70222;49.204;-122.940;2023-08-06T10:50:10;3.30;;;2.22;;
80707;SDS011;70222;49.204;-122.940;2023-08-06T10:52:42;4.50;;;2.40;;
80707;SDS011;70222;49.204;-122.940;2023-08-06T10:55:09;4.70;;;2.10;;
80707;SDS011;70222;49.204;-122.940;2023-08-06T10:57:35;3.33;;;2.50;;
80707;SDS011;70222;49.204;-122.940;2023-08-06T11:00:04;4.63;;;3.03;;
80707;SDS011;70222;49.204;-122.940;2023-08-06T11:02:38;4.47;;;2.22;;
80707;SDS011;70222;49.204;-122.940;2023-08-06T11:05:07;3.63;;;2.75;;
80707;SDS011;70222;49.204;-122.940;2023-08-06T11:07:34;3.05;;;2.20;;
80707;SDS011;70222;49.204;-122.940;2023-08-06T11:10:02;3.25;;;1.98;;
80707;SDS011;70222;49.204;-122.940;2023-08-06T11:12:29;2.97;;;2.35;;
80707;SDS011;70222;49.204;-122.940;2023-08-06T11:14:56;5.55;;;2.40;;
80707;SDS011;70222;49.204;-122.940;2023-08-06T11:17:22;2.97;;;2.20;;
80707;SDS011;70222;49.204;-122.940;2023-08-06T11:19:48;3.05;;;2.10;;
80707;SDS011;70222;49.204;-122.940;2023-08-06T11:24:41;4.25;;;2.38;;
80707;SDS011;70222;49.204;-122.940;2023-08-06T11:27:11;3.55;;;2.50;;
80707;SDS011;70222;49.204;-122.940;2023-08-06T11:32:07;3.72;;;2.20;;
80707;SDS011;70222;49.204;-122.940;2023-08-06T11:34:34;3.47;;;2.22;;
80707;SDS011;70222;49.204;-122.940;2023-08-06T11:37:02;3.00;;;2.15;;
80707;SDS011;70222;49.204;-122.940;2023-08-06T11:39:31;3.97;;;1.92;;
80707;SDS011;70222;49.204;-122.940;2023-08-06T11:42:04;2.78;;;1.80;;
80707;SDS011;70222;49.204;-122.940;2023-08-06T11:44:31;3.60;;;2.30;;
80707;SDS011;70222;49.204;-122.940;2023-08-06T11:47:00;4.35;;;2.25;;
80707;SDS011;70222;49.204;-122.940;2023-08-06T11:55:06;3.63;;;1.92;;
80707;SDS011;70222;49.204;-122.940;2023-08-06T11:57:36;4.47;;;2.10;;
80707;SDS011;70222;49.204;-122.940;2023-08-06T12:05:11;3.95;;;2.22;;
80707;SDS011;70222;49.204;-122.940;2023-08-06T12:07:38;4.22;;;2.28;;
80707;SDS011;70222;49.204;-122.940;2023-08-06T12:10:07;3.45;;;2.08;;
80707;SDS011;70222;49.204;-122.940;2023-08-06T12:12:33;4.72;;;2.25;;
80707;SDS011;70222;49.204;-122.940;2023-08-06T12:15:00;3.97;;;2.53;;
80707;SDS011;70222;49.204;-122.940;2023-08-06T12:17:27;4.60;;;3.15;;
80707;SDS011;70222;49.204;-122.940;2023-08-06T12:19:53;5.68;;;3.58;;
80707;SDS011;70222;49.204;-122.940;2023-08-06T12:22:19;6.28;;;5.10;;
80707;SDS011;70222;49.204;-122.940;2023-08-06T12:24:46;4.97;;;4.45;;
80707;SDS011;70222;49.204;-122.940;2023-08-06T12:27:12;7.85;;;7.05;;
80707;SDS011;70222;49.204;-122.940;2023-08-06T12:29:45;13.95;;;11.70;;
80707;SDS011;70222;49.204;-122.940;2023-08-06T12:32:14;16.63;;;13.02;;
80707;SDS011;70222;49.204;-122.940;2023-08-06T12:34:41;21.30;;;16.90;;
80707;SDS011;70222;49.204;-122.940;2023-08-06T12:39:34;26.13;;;20.50;;
80707;SDS011;70222;49.204;-122.940;2023-08-06T12:42:01;26.77;;;18.13;;
80707;SDS011;70222;49.204;-122.940;2023-08-06T12:44:28;24.13;;;19.08;;
80707;SDS011;70222;49.204;-122.940;2023-08-06T12:46:54;19.73;;;15.25;;
80707;SDS011;70222;49.204;-122.940;2023-08-06T12:49:20;16.30;;;12.20;;
80707;SDS011;70222;49.204;-122.940;2023-08-06T12:51:47;21.45;;;15.07;;
80707;SDS011;70222;49.204;-122.940;2023-08-06T12:54:16;14.93;;;10.05;;
80707;SDS011;70222;49.204;-122.940;2023-08-06T12:56:44;16.92;;;12.63;;
80707;SDS011;70222;49.204;-122.940;2023-08-06T12:59:11;22.40;;;13.10;;
80707;SDS011;70222;49.204;-122.940;2023-08-06T13:01:38;20.77;;;14.20;;
80707;SDS011;70222;49.204;-122.940;2023-08-06T13:04:04;12.90;;;8.80;;
80707;SDS011;70222;49.204;-122.940;2023-08-06T13:06:31;11.10;;;7.50;;
80707;SDS011;70222;49.204;-122.940;2023-08-06T13:09:06;8.68;;;5.82;;
80707;SDS011;70222;49.204;-122.940;2023-08-06T13:11:33;7.60;;;4.90;;
80707;SDS011;70222;49.204;-122.940;2023-08-06T13:14:04;7.22;;;4.85;;
80707;SDS011;70222;49.204;-122.940;2023-08-06T13:16:31;8.25;;;4.07;;
80707;SDS011;70222;49.204;-122.940;2023-08-06T13:21:24;7.38;;;4.82;;
80707;SDS011;70222;49.204;-122.940;2023-08-06T13:23:56;5.88;;;3.83;;
80707;SDS011;70222;49.204;-122.940;2023-08-06T13:26:23;6.20;;;3.72;;
80707;SDS011;70222;49.204;-122.940;2023-08-06T13:28:49;8.50;;;4.13;;
80707;SDS011;70222;49.204;-122.940;2023-08-06T13:31:16;5.15;;;3.38;;
80707;SDS011;70222;49.204;-122.940;2023-08-06T13:33:42;4.68;;;2.92;;
80707;SDS011;70222;49.204;-122.940;2023-08-06T13:36:08;4.60;;;2.60;;
80707;SDS011;70222;49.204;-122.940;2023-08-06T13:38:34;3.97;;;2.75;;
80707;SDS011;70222;49.204;-122.940;2023-08-06T13:41:01;3.92;;;2.40;;
80707;SDS011;70222;49.204;-122.940;2023-08-06T13:43:27;4.63;;;2.47;;
80707;SDS011;70222;49.204;-122.940;2023-08-06T13:45:53;2.97;;;2.25;;
80707;SDS011;70222;49.204;-122.940;2023-08-06T13:48:19;3.50;;;2.10;;
80707;SDS011;70222;49.204;-122.940;2023-08-06T13:50:45;5.25;;;2.17;;
80707;SDS011;70222;49.204;-122.940;2023-08-06T13:53:11;2.60;;;2.00;;
80707;SDS011;70222;49.204;-122.940;2023-08-06T13:55:37;2.33;;;1.80;;
80707;SDS011;70222;49.204;-122.940;2023-08-06T13:58:04;4.22;;;2.22;;
80707;SDS011;70222;49.204;-122.940;2023-08-06T14:00:30;2.90;;;1.90;;
80707;SDS011;70222;49.204;-122.940;2023-08-06T14:02:57;2.95;;;1.90;;
80707;SDS011;70222;49.204;-122.940;2023-08-06T14:05:24;4.07;;;2.38;;
80707;SDS011;70222;49.204;-122.940;2023-08-06T14:07:50;4.20;;;1.75;;
80707;SDS011;70222;49.204;-122.940;2023-08-06T14:10:16;2.58;;;1.73;;
80707;SDS011;70222;49.204;-122.940;2023-08-06T14:12:42;2.40;;;1.50;;
80707;SDS011;70222;49.204;-122.940;2023-08-06T14:15:08;5.82;;;1.80;;
80707;SDS011;70222;49.204;-122.940;2023-08-06T14:17:36;1.88;;;1.33;;
80707;SDS011;70222;49.204;-122.940;2023-08-06T14:20:02;2.70;;;1.67;;
80707;SDS011;70222;49.204;-122.940;2023-08-06T14:22:30;3.40;;;2.00;;
80707;SDS011;70222;49.204;-122.940;2023-08-06T14:27:23;2.38;;;1.55;;
80707;SDS011;70222;49.204;-122.940;2023-08-06T14:29:49;3.22;;;1.83;;
80707;SDS011;70222;49.204;-122.940;2023-08-06T14:32:15;2.88;;;2.10;;
80707;SDS011;70222;49.204;-122.940;2023-08-06T14:34:43;2.92;;;1.52;;
80707;SDS011;70222;49.204;-122.940;2023-08-06T14:37:10;2.80;;;1.60;;
80707;SDS011;70222;49.204;-122.940;2023-08-06T14:39:36;2.60;;;1.70;;
80707;SDS011;70222;49.204;-122.940;2023-08-06T14:42:03;2.13;;;1.50;;
80707;SDS011;70222;49.204;-122.940;2023-08-06T14:44:30;2.75;;;1.60;;
80707;SDS011;70222;49.204;-122.940;2023-08-06T14:46:56;2.35;;;1.88;;
80707;SDS011;70222;49.204;-122.940;2023-08-06T14:49:23;2.70;;;1.60;;
80707;SDS011;70222;49.204;-122.940;2023-08-06T14:51:49;2.50;;;1.60;;
80707;SDS011;70222;49.204;-122.940;2023-08-06T14:54:15;3.58;;;1.48;;